sensor_id;sensor_type;location;lat;lon;timestamp;pressure;altitude;pressure_sealevel;temperature;humidity
39223;BME280;24936;46.328;11.026;2022-10-01T00:00:33;94241.88;;;8.75;100.00
39223;BME280;24936;46.328;11.026;2022-10-01T00:02:58;94241.41;;;8.91;100.00
39223;BME280;24936;46.328;11.026;2022-10-01T00:05:24;94245.28;;;8.90;100.00
39223;BME280;24936;46.328;11.026;2022-10-01T00:07:49;94252.66;;;8.79;100.00
39223;BME280;24936;46.328;11.026;2022-10-01T00:10:15;94260.72;;;8.83;100.00
39223;BME280;24936;46.328;11.026;2022-10-01T00:12:46;94265.34;;;8.86;100.00
39223;BME280;24936;46.328;11.026;2022-10-01T00:15:15;94267.66;;;8.84;100.00
39223;BME280;24936;46.328;11.026;2022-10-01T00:17:41;94265.34;;;8.86;100.00
39223;BME280;24936;46.328;11.026;2022-10-01T00:20:08;94266.44;;;8.95;100.00
39223;BME280;24936;46.328;11.026;2022-10-01T00:22:35;94283.00;;;9.01;100.00
39223;BME280;24936;46.328;11.026;2022-10-01T00:25:01;94282.59;;;9.06;100.00
39223;BME280;24936;46.328;11.026;2022-10-01T00:27:28;94284.53;;;9.06;100.00
39223;BME280;24936;46.328;11.026;2022-10-01T00:29:53;94279.47;;;9.08;100.00
39223;BME280;24936;46.328;11.026;2022-10-01T00:32:20;94283.78;;;8.98;100.00
39223;BME280;24936;46.328;11.026;2022-10-01T00:34:45;94284.56;;;8.91;100.00
39223;BME280;24936;46.328;11.026;2022-10-01T00:37:10;94285.34;;;8.88;100.00
39223;BME280;24936;46.328;11.026;2022-10-01T00:39:36;94289.22;;;8.87;100.00
39223;BME280;24936;46.328;11.026;2022-10-01T00:42:22;94281.91;;;8.88;100.00
39223;BME280;24936;46.328;11.026;2022-10-01T00:44:48;94289.88;;;9.16;100.00
39223;BME280;24936;46.328;11.026;2022-10-01T00:49:46;94299.41;;;9.32;100.00
39223;BME280;24936;46.328;11.026;2022-10-01T00:52:15;94293.63;;;9.30;100.00
39223;BME280;24936;46.328;11.026;2022-10-01T00:54:56;94294.38;;;9.34;100.00
39223;BME280;24936;46.328;11.026;2022-10-01T00:57:24;94298.25;;;9.33;100.00
39223;BME280;24936;46.328;11.026;2022-10-01T00:59:52;94298.97;;;9.40;100.00
39223;BME280;24936;46.328;11.026;2022-10-01T01:02:19;94296.69;;;9.35;100.00
39223;BME280;24936;46.328;11.026;2022-10-01T01:04:44;94298.59;;;9.38;100.00
39223;BME280;24936;46.328;11.026;2022-10-01T01:07:10;94307.06;;;9.44;100.00
39223;BME280;24936;46.328;11.026;2022-10-01T01:09:39;94309.75;;;9.44;100.00
39223;BME280;24936;46.328;11.026;2022-10-01T01:17:34;94302.72;;;9.53;100.00
39223;BME280;24936;46.328;11.026;2022-10-01T01:22:44;94291.88;;;9.61;100.00
39223;BME280;24936;46.328;11.026;2022-10-01T01:25:16;94294.22;;;9.59;100.00
39223;BME280;24936;46.328;11.026;2022-10-01T01:28:11;94300.00;;;9.61;100.00
39223;BME280;24936;46.328;11.026;2022-10-01T01:30:35;94300.41;;;9.59;100.00
39223;BME280;24936;46.328;11.026;2022-10-01T01:33:11;94295.78;;;9.56;100.00
39223;BME280;24936;46.328;11.026;2022-10-01T01:35:43;94297.69;;;9.59;100.00
39223;BME280;24936;46.328;11.026;2022-10-01T01:38:13;94296.16;;;9.58;100.00
39223;BME280;24936;46.328;11.026;2022-10-01T01:40:42;94289.91;;;9.65;100.00
39223;BME280;24936;46.328;11.026;2022-10-01T01:43:13;94288.78;;;9.66;100.00
39223;BME280;24936;46.328;11.026;2022-10-01T01:45:43;94274.56;;;9.55;100.00
39223;BME280;24936;46.328;11.026;2022-10-01T01:48:09;94271.16;;;9.47;100.00
39223;BME280;24936;46.328;11.026;2022-10-01T01:50:42;94281.59;;;9.41;100.00
39223;BME280;24936;46.328;11.026;2022-10-01T01:53:09;94288.13;;;9.47;100.00
39223;BME280;24936;46.328;11.026;2022-10-01T01:55:35;94283.22;;;9.32;100.00
39223;BME280;24936;46.328;11.026;2022-10-01T01:58:01;94285.19;;;9.27;100.00
39223;BME280;24936;46.328;11.026;2022-10-01T02:00:26;94282.50;;;9.24;100.00
39223;BME280;24936;46.328;11.026;2022-10-01T02:02:53;94278.19;;;9.30;100.00
39223;BME280;24936;46.328;11.026;2022-10-01T02:05:38;94278.13;;;9.44;100.00
39223;BME280;24936;46.328;11.026;2022-10-01T02:11:27;94276.53;;;9.50;100.00
39223;BME280;24936;46.328;11.026;2022-10-01T02:17:15;94273.97;;;9.29;100.00
39223;BME280;24936;46.328;11.026;2022-10-01T02:19:56;94270.88;;;9.27;100.00
39223;BME280;24936;46.328;11.026;2022-10-01T02:25:02;94260.50;;;9.22;100.00
39223;BME280;24936;46.328;11.026;2022-10-01T02:27:38;94257.38;;;9.27;100.00
39223;BME280;24936;46.328;11.026;2022-10-01T02:30:07;94249.25;;;9.34;100.00
39223;BME280;24936;46.328;11.026;2022-10-01T02:32:36;94252.69;;;9.38;100.00
39223;BME280;24936;46.328;11.026;2022-10-01T02:35:05;94236.16;;;9.29;100.00
39223;BME280;24936;46.328;11.026;2022-10-01T02:37:32;94251.22;;;9.26;100.00
39223;BME280;24936;46.328;11.026;2022-10-01T02:39:59;94248.19;;;9.21;100.00
39223;BME280;24936;46.328;11.026;2022-10-01T02:42:27;94245.13;;;9.12;100.00
39223;BME280;24936;46.328;11.026;2022-10-01T02:44:55;94248.28;;;8.99;100.00
39223;BME280;24936;46.328;11.026;2022-10-01T02:47:39;94251.75;;;9.03;100.00
39223;BME280;24936;46.328;11.026;2022-10-01T02:53:34;94250.75;;;8.72;100.00
39223;BME280;24936;46.328;11.026;2022-10-01T02:56:02;94258.91;;;8.54;100.00
39223;BME280;24936;46.328;11.026;2022-10-01T02:58:28;94260.84;;;8.50;100.00
39223;BME280;24936;46.328;11.026;2022-10-01T03:00:54;94251.63;;;8.34;100.00
39223;BME280;24936;46.328;11.026;2022-10-01T03:03:19;94248.59;;;8.14;100.00
39223;BME280;24936;46.328;11.026;2022-10-01T03:05:50;94251.31;;;8.06;100.00
39223;BME280;24936;46.328;11.026;2022-10-01T03:08:15;94258.56;;;8.24;100.00
39223;BME280;24936;46.328;11.026;2022-10-01T03:10:41;94264.38;;;8.15;100.00
39223;BME280;24936;46.328;11.026;2022-10-01T03:13:06;94260.56;;;8.02;100.00
39223;BME280;24936;46.328;11.026;2022-10-01T03:15:32;94262.50;;;7.91;100.00
39223;BME280;24936;46.328;11.026;2022-10-01T03:17:57;94256.34;;;7.76;100.00
39223;BME280;24936;46.328;11.026;2022-10-01T03:20:23;94253.25;;;7.74;100.00
39223;BME280;24936;46.328;11.026;2022-10-01T03:22:48;94254.44;;;7.69;100.00
39223;BME280;24936;46.328;11.026;2022-10-01T03:25:14;94259.41;;;7.89;100.00
39223;BME280;24936;46.328;11.026;2022-10-01T03:27:40;94248.63;;;8.06;100.00
39223;BME280;24936;46.328;11.026;2022-10-01T03:30:06;94254.78;;;8.03;100.00
39223;BME280;24936;46.328;11.026;2022-10-01T03:32:32;94252.47;;;8.05;100.00
39223;BME280;24936;46.328;11.026;2022-10-01T03:34:58;94258.56;;;8.24;100.00
39223;BME280;24936;46.328;11.026;2022-10-01T03:37:24;94254.72;;;8.39;100.00
39223;BME280;24936;46.328;11.026;2022-10-01T03:39:49;94253.94;;;8.46;100.00
39223;BME280;24936;46.328;11.026;2022-10-01T03:42:15;94256.25;;;8.47;100.00
39223;BME280;24936;46.328;11.026;2022-10-01T03:44:41;94265.09;;;8.48;100.00
39223;BME280;24936;46.328;11.026;2022-10-01T03:47:07;94262.41;;;8.44;100.00
39223;BME280;24936;46.328;11.026;2022-10-01T03:49:33;94268.59;;;8.41;100.00
39223;BME280;24936;46.328;11.026;2022-10-01T03:51:59;94270.88;;;8.39;100.00
39223;BME280;24936;46.328;11.026;2022-10-01T03:54:25;94266.63;;;8.35;100.00
39223;BME280;24936;46.328;11.026;2022-10-01T03:56:50;94274.72;;;8.35;100.00
39223;BME280;24936;46.328;11.026;2022-10-01T03:59:16;94274.75;;;8.38;100.00
39223;BME280;24936;46.328;11.026;2022-10-01T04:01:42;94276.28;;;8.36;100.00
39223;BME280;24936;46.328;11.026;2022-10-01T04:04:07;94278.59;;;8.34;100.00
39223;BME280;24936;46.328;11.026;2022-10-01T04:06:33;94273.59;;;8.36;100.00
39223;BME280;24936;46.328;11.026;2022-10-01T04:08:58;94268.59;;;8.27;100.00
39223;BME280;24936;46.328;11.026;2022-10-01T04:11:24;94277.09;;;8.18;100.00
39223;BME280;24936;46.328;11.026;2022-10-01T04:13:50;94278.63;;;8.19;100.00
39223;BME280;24936;46.328;11.026;2022-10-01T04:16:15;94277.44;;;8.24;100.00
39223;BME280;24936;46.328;11.026;2022-10-01T04:18:41;94292.47;;;8.39;100.00
39223;BME280;24936;46.328;11.026;2022-10-01T04:21:07;94291.69;;;8.42;100.00
39223;BME280;24936;46.328;11.026;2022-10-01T04:23:32;94292.47;;;8.39;100.00
39223;BME280;24936;46.328;11.026;2022-10-01T04:25:59;94290.91;;;8.31;100.00
39223;BME280;24936;46.328;11.026;2022-10-01T04:28:27;94284.00;;;8.37;100.00
39223;BME280;24936;46.328;11.026;2022-10-01T04:30:52;94287.44;;;8.34;100.00
39223;BME280;24936;46.328;11.026;2022-10-01T04:33:38;94281.28;;;8.48;100.00
39223;BME280;24936;46.328;11.026;2022-10-01T04:36:04;94292.44;;;8.53;100.00
39223;BME280;24936;46.328;11.026;2022-10-01T04:38:29;94293.19;;;8.50;100.00
39223;BME280;24936;46.328;11.026;2022-10-01T04:40:54;94297.47;;;8.48;100.00
39223;BME280;24936;46.328;11.026;2022-10-01T04:43:20;94296.69;;;8.37;100.00
39223;BME280;24936;46.328;11.026;2022-10-01T04:45:45;94294.78;;;8.37;100.00
39223;BME280;24936;46.328;11.026;2022-10-01T04:48:10;94296.31;;;8.38;100.00
39223;BME280;24936;46.328;11.026;2022-10-01T04:50:36;94282.47;;;8.29;100.00
39223;BME280;24936;46.328;11.026;2022-10-01T04:53:01;94298.63;;;8.29;100.00
39223;BME280;24936;46.328;11.026;2022-10-01T04:55:26;94302.47;;;8.35;100.00
39223;BME280;24936;46.328;11.026;2022-10-01T04:57:52;94296.69;;;8.37;100.00
39223;BME280;24936;46.328;11.026;2022-10-01T05:00:20;94292.84;;;8.41;100.00
39223;BME280;24936;46.328;11.026;2022-10-01T05:02:47;94288.63;;;8.44;100.00
39223;BME280;24936;46.328;11.026;2022-10-01T05:05:14;94284.75;;;8.41;100.00
39223;BME280;24936;46.328;11.026;2022-10-01T05:07:39;94285.91;;;8.44;100.00
39223;BME280;24936;46.328;11.026;2022-10-01T05:10:07;94287.78;;;8.58;100.00
39223;BME280;24936;46.328;11.026;2022-10-01T05:12:34;94292.72;;;8.77;100.00
39223;BME280;24936;46.328;11.026;2022-10-01T05:14:59;94298.88;;;8.81;100.00
39223;BME280;24936;46.328;11.026;2022-10-01T05:17:25;94289.97;;;8.91;100.00
39223;BME280;24936;46.328;11.026;2022-10-01T05:19:50;94288.44;;;8.90;100.00
39223;BME280;24936;46.328;11.026;2022-10-01T05:22:16;94292.69;;;8.88;100.00
39223;BME280;24936;46.328;11.026;2022-10-01T05:24:41;94301.53;;;8.88;100.00
39223;BME280;24936;46.328;11.026;2022-10-01T05:27:08;94302.69;;;8.98;100.00
39223;BME280;24936;46.328;11.026;2022-10-01T05:29:38;94305.72;;;9.03;100.00
39223;BME280;24936;46.328;11.026;2022-10-01T05:32:04;94312.28;;;9.02;100.00
39223;BME280;24936;46.328;11.026;2022-10-01T05:34:33;94314.97;;;9.10;100.00
39223;BME280;24936;46.328;11.026;2022-10-01T05:36:58;94321.50;;;9.16;100.00
39223;BME280;24936;46.328;11.026;2022-10-01T05:39:23;94324.97;;;9.13;100.00
39223;BME280;24936;46.328;11.026;2022-10-01T05:41:49;94325.75;;;9.13;100.00
39223;BME280;24936;46.328;11.026;2022-10-01T05:44:15;94326.50;;;9.17;100.00
39223;BME280;24936;46.328;11.026;2022-10-01T05:46:40;94335.72;;;9.23;100.00
39223;BME280;24936;46.328;11.026;2022-10-01T05:49:07;94332.63;;;9.21;100.00
39223;BME280;24936;46.328;11.026;2022-10-01T05:51:33;94317.59;;;9.20;100.00
39223;BME280;24936;46.328;11.026;2022-10-01T05:54:00;94325.28;;;9.29;100.00
39223;BME280;24936;46.328;11.026;2022-10-01T05:56:28;94327.53;;;9.34;100.00
39223;BME280;24936;46.328;11.026;2022-10-01T05:58:53;94319.44;;;9.38;100.00
39223;BME280;24936;46.328;11.026;2022-10-01T06:01:19;94329.03;;;9.42;100.00
39223;BME280;24936;46.328;11.026;2022-10-01T06:03:44;94332.88;;;9.48;100.00
39223;BME280;24936;46.328;11.026;2022-10-01T06:06:09;94330.53;;;9.54;100.00
39223;BME280;24936;46.328;11.026;2022-10-01T06:08:35;94330.09;;;9.63;100.00
39223;BME280;24936;46.328;11.026;2022-10-01T06:11:02;94334.28;;;9.71;100.00
39223;BME280;24936;46.328;11.026;2022-10-01T06:13:28;94338.09;;;9.77;100.00
39223;BME280;24936;46.328;11.026;2022-10-01T06:15:54;94340.72;;;9.84;100.00
39223;BME280;24936;46.328;11.026;2022-10-01T06:18:19;94341.78;;;10.01;100.00
39223;BME280;24936;46.328;11.026;2022-10-01T06:20:45;94349.53;;;9.95;100.00
39223;BME280;24936;46.328;11.026;2022-10-01T06:23:12;94352.63;;;9.97;100.00
39223;BME280;24936;46.328;11.026;2022-10-01T06:25:41;94354.41;;;10.15;100.00
39223;BME280;24936;46.328;11.026;2022-10-01T06:28:09;94345.13;;;10.16;100.00
39223;BME280;24936;46.328;11.026;2022-10-01T06:30:37;94366.31;;;10.24;100.00
39223;BME280;24936;46.328;11.026;2022-10-01T06:33:06;94365.09;;;10.33;100.00
39223;BME280;24936;46.328;11.026;2022-10-01T06:35:34;94362.72;;;10.42;100.00
39223;BME280;24936;46.328;11.026;2022-10-01T06:38:00;94366.50;;;10.48;100.00
39223;BME280;24936;46.328;11.026;2022-10-01T06:40:29;94369.25;;;10.44;100.00
39223;BME280;24936;46.328;11.026;2022-10-01T06:42:55;94365.00;;;10.43;100.00
39223;BME280;24936;46.328;11.026;2022-10-01T06:45:25;94366.47;;;10.52;100.00
39223;BME280;24936;46.328;11.026;2022-10-01T06:47:57;94371.53;;;10.49;100.00
39223;BME280;24936;46.328;11.026;2022-10-01T06:50:27;94374.53;;;10.59;100.00
39223;BME280;24936;46.328;11.026;2022-10-01T06:52:52;94364.13;;;10.57;100.00
39223;BME280;24936;46.328;11.026;2022-10-01T06:55:20;94370.59;;;10.67;100.00
39223;BME280;24936;46.328;11.026;2022-10-01T06:57:46;94368.50;;;10.82;100.00
39223;BME280;24936;46.328;11.026;2022-10-01T07:00:12;94372.63;;;10.93;100.00
39223;BME280;24936;46.328;11.026;2022-10-01T07:02:38;94367.09;;;11.04;100.00
39223;BME280;24936;46.328;11.026;2022-10-01T07:05:04;94361.59;;;11.11;100.00
39223;BME280;24936;46.328;11.026;2022-10-01T07:07:30;94352.56;;;11.21;100.00
39223;BME280;24936;46.328;11.026;2022-10-01T07:09:57;94349.44;;;11.27;100.00
39223;BME280;24936;46.328;11.026;2022-10-01T07:15:07;94353.16;;;11.36;100.00
39223;BME280;24936;46.328;11.026;2022-10-01T07:17:40;94360.81;;;11.45;100.00
39223;BME280;24936;46.328;11.026;2022-10-01T07:20:06;94354.22;;;11.46;100.00
39223;BME280;24936;46.328;11.026;2022-10-01T07:22:32;94357.44;;;11.37;100.00
39223;BME280;24936;46.328;11.026;2022-10-01T07:24:57;94358.28;;;11.31;100.00
39223;BME280;24936;46.328;11.026;2022-10-01T07:27:23;94354.84;;;11.27;100.00
39223;BME280;24936;46.328;11.026;2022-10-01T07:29:48;94364.31;;;11.42;100.00
39223;BME280;24936;46.328;11.026;2022-10-01T07:32:13;94368.78;;;11.56;100.00
39223;BME280;24936;46.328;11.026;2022-10-01T07:34:40;94351.97;;;11.68;100.00
39223;BME280;24936;46.328;11.026;2022-10-01T07:37:06;94349.94;;;11.76;100.00
39223;BME280;24936;46.328;11.026;2022-10-01T07:39:31;94350.00;;;11.72;100.00
39223;BME280;24936;46.328;11.026;2022-10-01T07:41:57;94353.81;;;11.75;100.00
39223;BME280;24936;46.328;11.026;2022-10-01T07:44:23;94350.38;;;11.70;100.00
39223;BME280;24936;46.328;11.026;2022-10-01T07:46:48;94344.75;;;11.88;100.00
39223;BME280;24936;46.328;11.026;2022-10-01T07:49:14;94338.94;;;11.86;100.00
39223;BME280;24936;46.328;11.026;2022-10-01T07:51:41;94344.56;;;11.99;100.00
39223;BME280;24936;46.328;11.026;2022-10-01T07:54:08;94346.47;;;12.02;100.00
39223;BME280;24936;46.328;11.026;2022-10-01T07:56:34;94336.22;;;12.13;100.00
39223;BME280;24936;46.328;11.026;2022-10-01T07:58:59;94341.22;;;12.15;100.00
39223;BME280;24936;46.328;11.026;2022-10-01T08:01:25;94348.59;;;12.38;100.00
39223;BME280;24936;46.328;11.026;2022-10-01T08:03:51;94357.88;;;12.40;100.00
39223;BME280;24936;46.328;11.026;2022-10-01T08:06:16;94350.31;;;12.52;100.00
39223;BME280;24936;46.328;11.026;2022-10-01T08:08:42;94341.50;;;12.67;100.00
39223;BME280;24936;46.328;11.026;2022-10-01T08:11:09;94352.63;;;12.73;100.00
39223;BME280;24936;46.328;11.026;2022-10-01T08:13:35;94353.91;;;12.88;100.00
39223;BME280;24936;46.328;11.026;2022-10-01T08:16:04;94354.28;;;12.90;100.00
39223;BME280;24936;46.328;11.026;2022-10-01T08:18:32;94358.31;;;12.82;100.00
39223;BME280;24936;46.328;11.026;2022-10-01T08:20:59;94357.31;;;12.92;100.00
39223;BME280;24936;46.328;11.026;2022-10-01T08:23:27;94348.78;;;12.94;100.00
39223;BME280;24936;46.328;11.026;2022-10-01T08:26:02;94349.97;;;13.13;100.00
39223;BME280;24936;46.328;11.026;2022-10-01T08:28:28;94353.31;;;13.40;100.00
39223;BME280;24936;46.328;11.026;2022-10-01T08:30:54;94336.47;;;13.29;100.00
39223;BME280;24936;46.328;11.026;2022-10-01T08:33:21;94340.13;;;13.39;100.00
39223;BME280;24936;46.328;11.026;2022-10-01T08:35:46;94345.09;;;13.44;100.00
39223;BME280;24936;46.328;11.026;2022-10-01T08:38:13;94343.28;;;13.37;100.00
39223;BME280;24936;46.328;11.026;2022-10-01T08:40:47;94347.88;;;13.40;100.00
39223;BME280;24936;46.328;11.026;2022-10-01T08:45:53;94355.59;;;13.02;100.00
39223;BME280;24936;46.328;11.026;2022-10-01T08:51:02;94340.69;;;13.30;100.00
39223;BME280;24936;46.328;11.026;2022-10-01T08:53:38;94342.72;;;13.26;100.00
39223;BME280;24936;46.328;11.026;2022-10-01T08:56:06;94357.75;;;13.11;100.00
39223;BME280;24936;46.328;11.026;2022-10-01T08:58:46;94367.41;;;12.92;100.00
39223;BME280;24936;46.328;11.026;2022-10-01T09:01:12;94361.50;;;12.97;100.00
39223;BME280;24936;46.328;11.026;2022-10-01T09:03:38;94362.06;;;12.88;100.00
39223;BME280;24936;46.328;11.026;2022-10-01T09:16:43;94366.25;;;13.13;100.00
39223;BME280;24936;46.328;11.026;2022-10-01T09:21:59;94357.31;;;12.92;100.00
39223;BME280;24936;46.328;11.026;2022-10-01T09:27:17;94344.88;;;13.15;100.00
39223;BME280;24936;46.328;11.026;2022-10-01T09:32:37;94339.44;;;13.35;100.00
39223;BME280;24936;46.328;11.026;2022-10-01T09:38:01;94339.59;;;13.64;100.00
39223;BME280;24936;46.328;11.026;2022-10-01T09:40:45;94340.66;;;13.70;100.00
39223;BME280;24936;46.328;11.026;2022-10-01T09:43:13;94336.78;;;13.51;100.00
39223;BME280;24936;46.328;11.026;2022-10-01T09:45:42;94345.56;;;13.59;100.00
39223;BME280;24936;46.328;11.026;2022-10-01T09:48:33;94345.03;;;13.64;100.00
39223;BME280;24936;46.328;11.026;2022-10-01T09:56:36;94336.75;;;13.71;100.00
39223;BME280;24936;46.328;11.026;2022-10-01T09:59:07;94332.72;;;13.59;100.00
39223;BME280;24936;46.328;11.026;2022-10-01T10:01:43;94336.13;;;13.63;100.00
39223;BME280;24936;46.328;11.026;2022-10-01T10:04:11;94333.09;;;13.78;100.00
39223;BME280;24936;46.328;11.026;2022-10-01T10:06:37;94336.16;;;13.80;100.00
39223;BME280;24936;46.328;11.026;2022-10-01T10:09:03;94335.63;;;13.85;100.00
39223;BME280;24936;46.328;11.026;2022-10-01T10:11:30;94321.13;;;13.92;100.00
39223;BME280;24936;46.328;11.026;2022-10-01T10:14:00;94314.81;;;14.11;100.00
39223;BME280;24936;46.328;11.026;2022-10-01T10:16:33;94320.59;;;14.29;100.00
39223;BME280;24936;46.328;11.026;2022-10-01T10:19:05;94316.59;;;14.34;100.00
39223;BME280;24936;46.328;11.026;2022-10-01T10:21:34;94316.50;;;14.70;100.00
39223;BME280;24936;46.328;11.026;2022-10-01T10:24:17;94302.66;;;15.06;100.00
39223;BME280;24936;46.328;11.026;2022-10-01T10:26:52;94302.50;;;15.26;100.00
39223;BME280;24936;46.328;11.026;2022-10-01T10:29:35;94294.56;;;15.45;100.00
39223;BME280;24936;46.328;11.026;2022-10-01T10:32:13;94288.91;;;15.39;100.00
39223;BME280;24936;46.328;11.026;2022-10-01T10:34:42;94282.69;;;15.51;100.00
39223;BME280;24936;46.328;11.026;2022-10-01T10:37:14;94280.19;;;15.82;100.00
39223;BME280;24936;46.328;11.026;2022-10-01T10:39:41;94289.81;;;16.00;100.00
39223;BME280;24936;46.328;11.026;2022-10-01T10:42:13;94285.97;;;15.97;100.00
39223;BME280;24936;46.328;11.026;2022-10-01T10:44:41;94288.16;;;16.02;100.00
39223;BME280;24936;46.328;11.026;2022-10-01T10:47:16;94275.81;;;16.11;100.00
39223;BME280;24936;46.328;11.026;2022-10-01T10:52:39;94259.88;;;16.09;100.00
39223;BME280;24936;46.328;11.026;2022-10-01T10:55:26;94260.56;;;16.35;100.00
39223;BME280;24936;46.328;11.026;2022-10-01T10:58:05;94255.13;;;16.35;100.00
39223;BME280;24936;46.328;11.026;2022-10-01T11:00:35;94249.72;;;16.44;100.00
39223;BME280;24936;46.328;11.026;2022-10-01T11:03:13;94241.28;;;16.51;100.00
39223;BME280;24936;46.328;11.026;2022-10-01T11:05:41;94235.22;;;16.69;100.00
39223;BME280;24936;46.328;11.026;2022-10-01T11:08:12;94241.59;;;16.88;100.00
39223;BME280;24936;46.328;11.026;2022-10-01T11:22:14;94225.78;;;17.36;100.00
39223;BME280;24936;46.328;11.026;2022-10-01T11:28:01;94229.38;;;17.64;100.00
39223;BME280;24936;46.328;11.026;2022-10-01T11:30:54;94218.69;;;17.48;100.00
39223;BME280;24936;46.328;11.026;2022-10-01T11:33:38;94222.19;;;17.89;100.00
39223;BME280;24936;46.328;11.026;2022-10-01T11:36:29;94220.75;;;17.35;100.00
39223;BME280;24936;46.328;11.026;2022-10-01T11:39:00;94224.88;;;17.39;100.00
39223;BME280;24936;46.328;11.026;2022-10-01T11:44:03;94212.59;;;17.13;100.00
39223;BME280;24936;46.328;11.026;2022-10-01T11:58:33;94215.91;;;16.86;100.00
39223;BME280;24936;46.328;11.026;2022-10-01T12:06:19;94209.16;;;18.02;100.00
39223;BME280;24936;46.328;11.026;2022-10-01T12:08:50;94200.03;;;17.56;100.00
39223;BME280;24936;46.328;11.026;2022-10-01T12:11:24;94202.44;;;17.53;100.00
39223;BME280;24936;46.328;11.026;2022-10-01T12:13:59;94208.19;;;17.15;100.00
39223;BME280;24936;46.328;11.026;2022-10-01T12:16:45;94212.25;;;16.79;100.00
39223;BME280;24936;46.328;11.026;2022-10-01T12:24:26;94224.38;;;16.78;100.00
39223;BME280;24936;46.328;11.026;2022-10-01T12:30:09;94213.81;;;16.68;100.00
39223;BME280;24936;46.328;11.026;2022-10-01T12:38:17;94192.41;;;17.19;100.00
39223;BME280;24936;46.328;11.026;2022-10-01T12:43:18;94185.59;;;17.64;100.00
39223;BME280;24936;46.328;11.026;2022-10-01T12:48:34;94193.84;;;17.73;100.00
39223;BME280;24936;46.328;11.026;2022-10-01T12:51:09;94187.81;;;17.97;100.00
39223;BME280;24936;46.328;11.026;2022-10-01T12:56:44;94184.66;;;18.08;100.00
39223;BME280;24936;46.328;11.026;2022-10-01T13:01:54;94183.84;;;17.39;100.00
39223;BME280;24936;46.328;11.026;2022-10-01T13:04:44;94177.38;;;17.15;100.00
39223;BME280;24936;46.328;11.026;2022-10-01T13:07:52;94170.50;;;17.10;100.00
39223;BME280;24936;46.328;11.026;2022-10-01T13:13:24;94168.72;;;16.85;100.00
39223;BME280;24936;46.328;11.026;2022-10-01T13:16:17;94172.50;;;16.44;100.00
39223;BME280;24936;46.328;11.026;2022-10-01T13:19:08;94162.72;;;16.33;100.00
39223;BME280;24936;46.328;11.026;2022-10-01T13:24:47;94158.84;;;16.44;100.00
39223;BME280;24936;46.328;11.026;2022-10-01T13:30:15;94163.63;;;16.74;100.00
39223;BME280;24936;46.328;11.026;2022-10-01T13:32:58;94168.06;;;16.81;100.00
39223;BME280;24936;46.328;11.026;2022-10-01T13:37:58;94154.75;;;16.83;100.00
39223;BME280;24936;46.328;11.026;2022-10-01T13:40:27;94163.22;;;16.63;100.00
39223;BME280;24936;46.328;11.026;2022-10-01T13:43:01;94174.50;;;16.87;100.00
39223;BME280;24936;46.328;11.026;2022-10-01T13:48:21;94170.81;;;16.81;100.00
39223;BME280;24936;46.328;11.026;2022-10-01T13:51:00;94166.38;;;16.52;100.00
39223;BME280;24936;46.328;11.026;2022-10-01T13:53:28;94170.19;;;16.20;100.00
39223;BME280;24936;46.328;11.026;2022-10-01T13:55:55;94167.59;;;16.17;100.00
39223;BME280;24936;46.328;11.026;2022-10-01T14:01:24;94163.75;;;16.49;100.00
39223;BME280;24936;46.328;11.026;2022-10-01T14:06:31;94163.19;;;16.54;100.00
39223;BME280;24936;46.328;11.026;2022-10-01T14:11:44;94170.53;;;16.44;100.00
39223;BME280;24936;46.328;11.026;2022-10-01T14:14:35;94160.13;;;16.74;100.00
39223;BME280;24936;46.328;11.026;2022-10-01T14:17:21;94152.50;;;16.69;100.00
39223;BME280;24936;46.328;11.026;2022-10-01T14:19:49;94156.88;;;16.66;100.00
39223;BME280;24936;46.328;11.026;2022-10-01T14:22:45;94153.22;;;16.60;100.00
39223;BME280;24936;46.328;11.026;2022-10-01T14:25:38;94156.13;;;16.88;100.00
39223;BME280;24936;46.328;11.026;2022-10-01T14:28:43;94144.56;;;16.62;100.00
39223;BME280;24936;46.328;11.026;2022-10-01T14:36:46;94148.69;;;16.66;100.00
39223;BME280;24936;46.328;11.026;2022-10-01T14:39:38;94157.34;;;16.87;100.00
39223;BME280;24936;46.328;11.026;2022-10-01T14:42:11;94159.09;;;16.58;100.00
39223;BME280;24936;46.328;11.026;2022-10-01T14:44:40;94158.47;;;16.54;100.00
39223;BME280;24936;46.328;11.026;2022-10-01T14:47:25;94158.22;;;16.40;100.00
39223;BME280;24936;46.328;11.026;2022-10-01T14:49:53;94164.94;;;16.70;100.00
39223;BME280;24936;46.328;11.026;2022-10-01T14:59:59;94151.53;;;16.63;100.00
39223;BME280;24936;46.328;11.026;2022-10-01T15:02:25;94158.25;;;16.71;100.00
39223;BME280;24936;46.328;11.026;2022-10-01T15:04:54;94150.28;;;16.54;100.00
39223;BME280;24936;46.328;11.026;2022-10-01T15:07:22;94149.44;;;16.67;100.00
39223;BME280;24936;46.328;11.026;2022-10-01T15:09:49;94130.09;;;16.74;100.00
39223;BME280;24936;46.328;11.026;2022-10-01T15:12:16;94146.91;;;16.28;100.00
39223;BME280;24936;46.328;11.026;2022-10-01T15:14:42;94158.06;;;15.99;100.00
39223;BME280;24936;46.328;11.026;2022-10-01T15:17:25;94162.16;;;15.69;100.00
39223;BME280;24936;46.328;11.026;2022-10-01T15:19:53;94156.03;;;15.52;100.00
39223;BME280;24936;46.328;11.026;2022-10-01T15:22:26;94156.94;;;15.36;100.00
39223;BME280;24936;46.328;11.026;2022-10-01T15:24:53;94167.63;;;15.18;100.00
39223;BME280;24936;46.328;11.026;2022-10-01T15:27:22;94168.06;;;15.17;100.00
39223;BME280;24936;46.328;11.026;2022-10-01T15:29:50;94165.69;;;15.19;100.00
39223;BME280;24936;46.328;11.026;2022-10-01T15:32:20;94180.16;;;15.03;100.00
39223;BME280;24936;46.328;11.026;2022-10-01T15:34:50;94172.75;;;15.03;100.00